sensor_id;sensor_type;location;lat;lon;timestamp;pressure;altitude;pressure_sealevel;temperature;humidity
23166;BME280;11751;42.700;24.170;2023-09-07T00:01:26;94515.00;;;20.77;nan
23166;BME280;11751;42.700;24.170;2023-09-07T00:03:51;94511.78;;;20.83;nan
23166;BME280;11751;42.700;24.170;2023-09-07T00:06:17;94509.97;;;20.66;nan
23166;BME280;11751;42.700;24.170;2023-09-07T00:08:43;94516.63;;;20.60;nan
23166;BME280;11751;42.700;24.170;2023-09-07T00:11:09;94510.66;;;20.56;nan
23166;BME280;11751;42.700;24.170;2023-09-07T00:13:35;94514.88;;;20.55;nan
23166;BME280;11751;42.700;24.170;2023-09-07T00:16:02;94515.00;;;20.57;nan
23166;BME280;11751;42.700;24.170;2023-09-07T00:18:28;94515.16;;;20.59;nan
23166;BME280;11751;42.700;24.170;2023-09-07T00:20:54;94496.28;;;20.42;nan
23166;BME280;11751;42.700;24.170;2023-09-07T00:23:20;94510.63;;;20.44;nan
23166;BME280;11751;42.700;24.170;2023-09-07T00:25:46;94512.88;;;20.46;nan
23166;BME280;11751;42.700;24.170;2023-09-07T00:28:11;94502.97;;;20.47;nan
23166;BME280;11751;42.700;24.170;2023-09-07T00:30:37;94501.75;;;20.50;nan
23166;BME280;11751;42.700;24.170;2023-09-07T00:33:03;94500.97;;;20.38;nan
23166;BME280;11751;42.700;24.170;2023-09-07T00:35:29;94505.88;;;20.37;nan
23166;BME280;11751;42.700;24.170;2023-09-07T00:37:57;94499.34;;;20.35;nan
23166;BME280;11751;42.700;24.170;2023-09-07T00:40:22;94495.75;;;20.34;nan
23166;BME280;11751;42.700;24.170;2023-09-07T00:42:48;94507.63;;;20.31;nan
23166;BME280;11751;42.700;24.170;2023-09-07T00:45:13;94494.84;;;20.32;nan
23166;BME280;11751;42.700;24.170;2023-09-07T00:47:39;94487.25;;;20.13;nan
23166;BME280;11751;42.700;24.170;2023-09-07T00:50:06;94495.16;;;20.15;nan
23166;BME280;11751;42.700;24.170;2023-09-07T00:52:32;94496.94;;;19.99;nan
23166;BME280;11751;42.700;24.170;2023-09-07T00:54:59;94490.38;;;19.96;nan
23166;BME280;11751;42.700;24.170;2023-09-07T00:57:25;94483.38;;;19.88;nan
23166;BME280;11751;42.700;24.170;2023-09-07T00:59:50;94493.53;;;19.91;nan
23166;BME280;11751;42.700;24.170;2023-09-07T01:02:16;94490.03;;;19.81;nan
23166;BME280;11751;42.700;24.170;2023-09-07T01:04:41;94493.03;;;19.53;nan
23166;BME280;11751;42.700;24.170;2023-09-07T01:07:17;94488.66;;;19.61;nan
23166;BME280;11751;42.700;24.170;2023-09-07T01:09:44;94484.31;;;19.60;nan
23166;BME280;11751;42.700;24.170;2023-09-07T01:12:15;94491.34;;;19.59;nan
23166;BME280;11751;42.700;24.170;2023-09-07T01:14:41;94494.06;;;19.57;nan
23166;BME280;11751;42.700;24.170;2023-09-07T01:17:07;94500.13;;;19.63;nan
23166;BME280;11751;42.700;24.170;2023-09-07T01:19:33;94499.00;;;19.57;nan
23166;BME280;11751;42.700;24.170;2023-09-07T01:21:59;94498.09;;;19.54;nan
23166;BME280;11751;42.700;24.170;2023-09-07T01:24:26;94495.25;;;19.54;nan
23166;BME280;11751;42.700;24.170;2023-09-07T01:26:52;94499.72;;;19.57;nan
23166;BME280;11751;42.700;24.170;2023-09-07T01:29:18;94500.50;;;19.58;nan
23166;BME280;11751;42.700;24.170;2023-09-07T01:31:43;94501.50;;;19.62;nan
23166;BME280;11751;42.700;24.170;2023-09-07T01:34:09;94509.47;;;19.54;nan
23166;BME280;11751;42.700;24.170;2023-09-07T01:36:34;94493.50;;;19.49;nan
23166;BME280;11751;42.700;24.170;2023-09-07T01:39:01;94489.31;;;19.20;nan
23166;BME280;11751;42.700;24.170;2023-09-07T01:41:26;94494.25;;;19.19;nan
23166;BME280;11751;42.700;24.170;2023-09-07T01:43:52;94492.28;;;19.22;nan
23166;BME280;11751;42.700;24.170;2023-09-07T01:46:17;94502.78;;;19.19;nan
23166;BME280;11751;42.700;24.170;2023-09-07T01:48:43;94498.72;;;19.22;nan
23166;BME280;11751;42.700;24.170;2023-09-07T01:51:08;94499.00;;;19.26;nan
23166;BME280;11751;42.700;24.170;2023-09-07T01:53:34;94489.13;;;19.27;nan
23166;BME280;11751;42.700;24.170;2023-09-07T01:55:59;94499.28;;;19.30;nan
23166;BME280;11751;42.700;24.170;2023-09-07T01:58:25;94492.41;;;19.33;nan
23166;BME280;11751;42.700;24.170;2023-09-07T02:00:53;94498.09;;;19.33;nan
23166;BME280;11751;42.700;24.170;2023-09-07T02:03:21;94493.75;;;19.32;nan
23166;BME280;11751;42.700;24.170;2023-09-07T02:05:47;94502.31;;;19.23;nan
23166;BME280;11751;42.700;24.170;2023-09-07T02:08:12;94484.56;;;19.13;nan
23166;BME280;11751;42.700;24.170;2023-09-07T02:10:38;94488.47;;;18.98;nan
23166;BME280;11751;42.700;24.170;2023-09-07T02:13:04;94481.94;;;18.87;nan
23166;BME280;11751;42.700;24.170;2023-09-07T02:15:30;94489.81;;;18.97;nan
23166;BME280;11751;42.700;24.170;2023-09-07T02:17:55;94496.84;;;18.96;nan
23166;BME280;11751;42.700;24.170;2023-09-07T02:20:21;94491.16;;;18.96;nan
23166;BME280;11751;42.700;24.170;2023-09-07T02:22:46;94498.19;;;18.95;nan
23166;BME280;11751;42.700;24.170;2023-09-07T02:25:11;94485.69;;;18.89;nan
23166;BME280;11751;42.700;24.170;2023-09-07T02:27:37;94489.66;;;18.56;nan
23166;BME280;11751;42.700;24.170;2023-09-07T02:30:03;94495.66;;;18.41;nan
23166;BME280;11751;42.700;24.170;2023-09-07T02:32:29;94481.75;;;18.64;nan
23166;BME280;11751;42.700;24.170;2023-09-07T02:34:54;94492.78;;;18.60;nan
23166;BME280;11751;42.700;24.170;2023-09-07T02:37:20;94493.19;;;18.66;nan
23166;BME280;11751;42.700;24.170;2023-09-07T02:39:45;94492.00;;;18.69;nan
23166;BME280;11751;42.700;24.170;2023-09-07T02:42:11;94495.16;;;18.73;nan
23166;BME280;11751;42.700;24.170;2023-09-07T02:44:36;94506.03;;;18.67;nan
23166;BME280;11751;42.700;24.170;2023-09-07T02:47:03;94508.00;;;18.64;nan
23166;BME280;11751;42.700;24.170;2023-09-07T02:49:29;94499.34;;;18.62;nan
23166;BME280;11751;42.700;24.170;2023-09-07T02:51:54;94511.44;;;18.63;nan
23166;BME280;11751;42.700;24.170;2023-09-07T02:54:19;94497.69;;;18.69;nan
23166;BME280;11751;42.700;24.170;2023-09-07T02:56:45;94503.94;;;18.77;nan
23166;BME280;11751;42.700;24.170;2023-09-07T02:59:10;94511.66;;;18.86;nan
23166;BME280;11751;42.700;24.170;2023-09-07T03:01:38;94503.13;;;18.95;nan
23166;BME280;11751;42.700;24.170;2023-09-07T03:04:04;94498.13;;;18.75;nan
23166;BME280;11751;42.700;24.170;2023-09-07T03:06:30;94506.19;;;18.78;nan
23166;BME280;11751;42.700;24.170;2023-09-07T03:08:55;94504.84;;;18.70;nan
23166;BME280;11751;42.700;24.170;2023-09-07T03:11:22;94505.28;;;18.76;nan
23166;BME280;11751;42.700;24.170;2023-09-07T03:13:47;94503.94;;;18.77;nan
23166;BME280;11751;42.700;24.170;2023-09-07T03:16:13;94503.09;;;18.65;nan
23166;BME280;11751;42.700;24.170;2023-09-07T03:18:38;94507.84;;;18.72;nan
23166;BME280;11751;42.700;24.170;2023-09-07T03:21:04;94504.84;;;18.70;nan
23166;BME280;11751;42.700;24.170;2023-09-07T03:23:30;94500.25;;;18.65;nan
23166;BME280;11751;42.700;24.170;2023-09-07T03:25:56;94508.47;;;18.61;nan
23166;BME280;11751;42.700;24.170;2023-09-07T03:28:22;94503.34;;;18.69;nan
23166;BME280;11751;42.700;24.170;2023-09-07T03:30:47;94506.34;;;18.71;nan
23166;BME280;11751;42.700;24.170;2023-09-07T03:33:13;94505.31;;;18.66;nan
23166;BME280;11751;42.700;24.170;2023-09-07T03:35:38;94506.34;;;18.61;nan
23166;BME280;11751;42.700;24.170;2023-09-07T03:38:06;94504.28;;;18.62;nan
23166;BME280;11751;42.700;24.170;2023-09-07T03:40:31;94495.00;;;18.61;nan
23166;BME280;11751;42.700;24.170;2023-09-07T03:42:57;94507.13;;;18.62;nan
23166;BME280;11751;42.700;24.170;2023-09-07T03:45:22;94501.44;;;18.62;nan
23166;BME280;11751;42.700;24.170;2023-09-07T03:47:48;94509.81;;;18.60;nan
23166;BME280;11751;42.700;24.170;2023-09-07T03:50:13;94500.41;;;18.57;nan
23166;BME280;11751;42.700;24.170;2023-09-07T03:52:38;94504.91;;;18.51;nan
23166;BME280;11751;42.700;24.170;2023-09-07T03:55:04;94503.72;;;18.44;nan
23166;BME280;11751;42.700;24.170;2023-09-07T03:57:30;94508.66;;;18.44;nan
23166;BME280;11751;42.700;24.170;2023-09-07T03:59:56;94515.34;;;18.39;nan
23166;BME280;11751;42.700;24.170;2023-09-07T04:02:22;94520.44;;;18.21;nan
23166;BME280;11751;42.700;24.170;2023-09-07T04:04:52;94522.34;;;18.19;nan
23166;BME280;11751;42.700;24.170;2023-09-07T04:07:18;94523.69;;;18.18;nan
23166;BME280;11751;42.700;24.170;2023-09-07T04:09:44;94526.81;;;18.12;nan
23166;BME280;11751;42.700;24.170;2023-09-07T04:12:10;94525.50;;;18.04;nan
23166;BME280;11751;42.700;24.170;2023-09-07T04:14:35;94526.69;;;18.01;nan
23166;BME280;11751;42.700;24.170;2023-09-07T04:17:01;94533.53;;;17.98;nan
23166;BME280;11751;42.700;24.170;2023-09-07T04:19:26;94529.22;;;17.88;nan
23166;BME280;11751;42.700;24.170;2023-09-07T04:21:52;94533.66;;;17.81;nan
23166;BME280;11751;42.700;24.170;2023-09-07T04:24:17;94527.13;;;17.79;nan
23166;BME280;11751;42.700;24.170;2023-09-07T04:26:43;94525.00;;;17.70;nan
23166;BME280;11751;42.700;24.170;2023-09-07T04:29:08;94530.84;;;17.72;nan
23166;BME280;11751;42.700;24.170;2023-09-07T04:31:34;94529.47;;;17.63;nan
23166;BME280;11751;42.700;24.170;2023-09-07T04:34:00;94535.44;;;17.77;nan
23166;BME280;11751;42.700;24.170;2023-09-07T04:36:25;94533.81;;;17.83;nan
23166;BME280;11751;42.700;24.170;2023-09-07T04:38:51;94533.34;;;17.77;nan
23166;BME280;11751;42.700;24.170;2023-09-07T04:41:16;94529.66;;;17.84;nan
23166;BME280;11751;42.700;24.170;2023-09-07T04:43:42;94533.97;;;17.85;nan
23166;BME280;11751;42.700;24.170;2023-09-07T04:46:11;94538.31;;;17.96;nan
23166;BME280;11751;42.700;24.170;2023-09-07T04:48:37;94536.09;;;17.94;nan
23166;BME280;11751;42.700;24.170;2023-09-07T04:51:05;94540.41;;;17.95;nan
23166;BME280;11751;42.700;24.170;2023-09-07T04:53:33;94540.09;;;17.91;nan
23166;BME280;11751;42.700;24.170;2023-09-07T04:56:00;94537.56;;;18.04;nan
23166;BME280;11751;42.700;24.170;2023-09-07T04:58:26;94535.47;;;17.96;nan
23166;BME280;11751;42.700;24.170;2023-09-07T05:00:52;94545.75;;;17.91;nan
23166;BME280;11751;42.700;24.170;2023-09-07T05:03:19;94540.63;;;17.61;nan
23166;BME280;11751;42.700;24.170;2023-09-07T05:05:44;94537.41;;;17.74;nan
23166;BME280;11751;42.700;24.170;2023-09-07T05:08:15;94532.66;;;17.86;nan
23166;BME280;11751;42.700;24.170;2023-09-07T05:10:41;94539.06;;;18.05;nan
23166;BME280;11751;42.700;24.170;2023-09-07T05:13:08;94546.13;;;18.33;nan
23166;BME280;11751;42.700;24.170;2023-09-07T05:15:33;94536.78;;;18.80;nan
23166;BME280;11751;42.700;24.170;2023-09-07T05:17:59;94541.31;;;19.22;nan
23166;BME280;11751;42.700;24.170;2023-09-07T05:20:25;94538.66;;;19.45;nan
23166;BME280;11751;42.700;24.170;2023-09-07T05:22:51;94538.19;;;19.79;nan
23166;BME280;11751;42.700;24.170;2023-09-07T05:25:18;94530.50;;;20.12;nan
23166;BME280;11751;42.700;24.170;2023-09-07T05:27:45;94540.25;;;20.30;nan
23166;BME280;11751;42.700;24.170;2023-09-07T05:30:11;94540.81;;;20.49;nan
23166;BME280;11751;42.700;24.170;2023-09-07T05:32:36;94531.47;;;20.58;nan
23166;BME280;11751;42.700;24.170;2023-09-07T05:35:02;94541.03;;;20.95;nan
23166;BME280;11751;42.700;24.170;2023-09-07T05:37:27;94529.91;;;21.10;nan
23166;BME280;11751;42.700;24.170;2023-09-07T05:39:52;94544.03;;;21.31;nan
23166;BME280;11751;42.700;24.170;2023-09-07T05:42:18;94536.03;;;21.62;nan
23166;BME280;11751;42.700;24.170;2023-09-07T05:44:43;94535.44;;;21.75;nan
23166;BME280;11751;42.700;24.170;2023-09-07T05:47:09;94533.69;;;21.70;nan
23166;BME280;11751;42.700;24.170;2023-09-07T05:49:34;94537.25;;;21.36;nan
23166;BME280;11751;42.700;24.170;2023-09-07T05:51:59;94535.91;;;21.37;nan
23166;BME280;11751;42.700;24.170;2023-09-07T05:54:25;94536.63;;;21.49;nan
23166;BME280;11751;42.700;24.170;2023-09-07T05:56:50;94542.59;;;21.42;nan
23166;BME280;11751;42.700;24.170;2023-09-07T05:59:16;94538.16;;;21.61;nan
23166;BME280;11751;42.700;24.170;2023-09-07T06:01:41;94537.41;;;21.84;nan
23166;BME280;11751;42.700;24.170;2023-09-07T06:04:07;94542.69;;;22.01;nan
23166;BME280;11751;42.700;24.170;2023-09-07T06:06:33;94545.03;;;22.16;nan
23166;BME280;11751;42.700;24.170;2023-09-07T06:08:58;94538.88;;;21.96;nan
23166;BME280;11751;42.700;24.170;2023-09-07T06:11:24;94523.03;;;21.70;nan
23166;BME280;11751;42.700;24.170;2023-09-07T06:13:50;94539.91;;;21.78;nan
23166;BME280;11751;42.700;24.170;2023-09-07T06:16:16;94545.06;;;21.93;nan
23166;BME280;11751;42.700;24.170;2023-09-07T06:18:41;94547.81;;;21.91;nan
23166;BME280;11751;42.700;24.170;2023-09-07T06:21:07;94542.34;;;21.95;nan
23166;BME280;11751;42.700;24.170;2023-09-07T06:23:32;94544.91;;;22.14;nan
23166;BME280;11751;42.700;24.170;2023-09-07T06:25:58;94548.13;;;22.20;nan
23166;BME280;11751;42.700;24.170;2023-09-07T06:28:23;94546.03;;;22.32;nan
23166;BME280;11751;42.700;24.170;2023-09-07T06:30:48;94547.41;;;22.19;nan
23166;BME280;11751;42.700;24.170;2023-09-07T06:33:14;94551.31;;;22.48;nan
23166;BME280;11751;42.700;24.170;2023-09-07T06:35:39;94548.25;;;22.69;nan
23166;BME280;11751;42.700;24.170;2023-09-07T06:38:05;94554.66;;;22.81;nan
23166;BME280;11751;42.700;24.170;2023-09-07T06:40:30;94549.31;;;23.12;nan
23166;BME280;11751;42.700;24.170;2023-09-07T06:42:55;94552.91;;;23.51;nan
23166;BME280;11751;42.700;24.170;2023-09-07T06:45:23;94549.84;;;23.60;nan
23166;BME280;11751;42.700;24.170;2023-09-07T06:50:17;94543.03;;;24.06;nan
23166;BME280;11751;42.700;24.170;2023-09-07T06:52:43;94542.06;;;24.15;nan
23166;BME280;11751;42.700;24.170;2023-09-07T06:55:08;94535.94;;;24.07;nan
23166;BME280;11751;42.700;24.170;2023-09-07T06:57:34;94553.41;;;24.39;nan
23166;BME280;11751;42.700;24.170;2023-09-07T07:00:00;94538.50;;;24.70;nan
23166;BME280;11751;42.700;24.170;2023-09-07T07:02:25;94532.81;;;24.56;nan
23166;BME280;11751;42.700;24.170;2023-09-07T07:04:51;94537.28;;;24.59;nan
23166;BME280;11751;42.700;24.170;2023-09-07T07:07:17;94532.94;;;24.58;nan
23166;BME280;11751;42.700;24.170;2023-09-07T07:09:42;94530.84;;;24.74;nan
23166;BME280;11751;42.700;24.170;2023-09-07T07:12:08;94520.22;;;24.90;nan
23166;BME280;11751;42.700;24.170;2023-09-07T07:14:33;94534.03;;;25.38;nan
23166;BME280;11751;42.700;24.170;2023-09-07T07:16:59;94525.38;;;25.82;nan
23166;BME280;11751;42.700;24.170;2023-09-07T07:19:27;94518.88;;;25.97;nan
23166;BME280;11751;42.700;24.170;2023-09-07T07:21:52;94524.63;;;25.82;nan
23166;BME280;11751;42.700;24.170;2023-09-07T07:24:18;94517.69;;;26.02;nan
23166;BME280;11751;42.700;24.170;2023-09-07T07:26:44;94519.25;;;25.59;nan
23166;BME280;11751;42.700;24.170;2023-09-07T07:29:09;94514.56;;;25.21;nan
23166;BME280;11751;42.700;24.170;2023-09-07T07:31:34;94524.13;;;25.41;nan
23166;BME280;11751;42.700;24.170;2023-09-07T07:34:00;94513.97;;;25.38;nan
23166;BME280;11751;42.700;24.170;2023-09-07T07:36:25;94525.34;;;25.67;nan
23166;BME280;11751;42.700;24.170;2023-09-07T07:38:51;94519.34;;;25.92;nan
23166;BME280;11751;42.700;24.170;2023-09-07T07:41:16;94510.00;;;26.06;nan
23166;BME280;11751;42.700;24.170;2023-09-07T07:43:42;94524.56;;;26.43;nan
23166;BME280;11751;42.700;24.170;2023-09-07T07:46:08;94518.53;;;26.53;nan
23166;BME280;11751;42.700;24.170;2023-09-07T07:48:33;94514.84;;;26.68;nan
23166;BME280;11751;42.700;24.170;2023-09-07T07:51:05;94510.66;;;26.88;nan
23166;BME280;11751;42.700;24.170;2023-09-07T07:53:31;94510.66;;;26.88;nan
23166;BME280;11751;42.700;24.170;2023-09-07T07:55:57;94510.84;;;26.92;nan
23166;BME280;11751;42.700;24.170;2023-09-07T07:58:22;94517.28;;;27.08;nan
23166;BME280;11751;42.700;24.170;2023-09-07T08:00:48;94513.41;;;27.19;nan
23166;BME280;11751;42.700;24.170;2023-09-07T08:03:16;94509.63;;;26.80;nan
23166;BME280;11751;42.700;24.170;2023-09-07T08:05:42;94510.91;;;26.77;nan
23166;BME280;11751;42.700;24.170;2023-09-07T08:08:08;94509.44;;;26.93;nan
23166;BME280;11751;42.700;24.170;2023-09-07T08:10:37;94514.00;;;26.48;nan
23166;BME280;11751;42.700;24.170;2023-09-07T08:13:03;94501.38;;;26.72;nan
23166;BME280;11751;42.700;24.170;2023-09-07T08:15:29;94510.84;;;26.92;nan
23166;BME280;11751;42.700;24.170;2023-09-07T08:17:56;94508.38;;;26.67;nan
23166;BME280;11751;42.700;24.170;2023-09-07T08:20:22;94508.44;;;26.69;nan
23166;BME280;11751;42.700;24.170;2023-09-07T08:22:48;94505.47;;;26.50;nan
23166;BME280;11751;42.700;24.170;2023-09-07T08:25:14;94496.88;;;26.67;nan
23166;BME280;11751;42.700;24.170;2023-09-07T08:27:42;94508.13;;;26.79;nan
23166;BME280;11751;42.700;24.170;2023-09-07T08:30:14;94507.38;;;26.78;nan
23166;BME280;11751;42.700;24.170;2023-09-07T08:32:41;94509.72;;;26.49;nan
23166;BME280;11751;42.700;24.170;2023-09-07T08:35:09;94498.38;;;26.20;nan
23166;BME280;11751;42.700;24.170;2023-09-07T08:37:38;94498.81;;;26.30;nan
23166;BME280;11751;42.700;24.170;2023-09-07T08:40:04;94506.97;;;26.35;nan
23166;BME280;11751;42.700;24.170;2023-09-07T08:42:30;94498.91;;;25.84;nan
23166;BME280;11751;42.700;24.170;2023-09-07T08:44:56;94504.06;;;25.72;nan
23166;BME280;11751;42.700;24.170;2023-09-07T08:47:25;94502.56;;;25.71;nan
23166;BME280;11751;42.700;24.170;2023-09-07T08:49:53;94500.72;;;25.62;nan
23166;BME280;11751;42.700;24.170;2023-09-07T08:52:19;94502.31;;;25.65;nan
23166;BME280;11751;42.700;24.170;2023-09-07T08:54:48;94497.88;;;25.93;nan
23166;BME280;11751;42.700;24.170;2023-09-07T08:57:14;94490.25;;;26.14;nan
23166;BME280;11751;42.700;24.170;2023-09-07T08:59:40;94495.94;;;26.45;nan
23166;BME280;11751;42.700;24.170;2023-09-07T09:02:09;94496.94;;;26.69;nan
23166;BME280;11751;42.700;24.170;2023-09-07T09:04:36;94492.88;;;26.41;nan
23166;BME280;11751;42.700;24.170;2023-09-07T09:07:02;94488.66;;;26.11;nan
23166;BME280;11751;42.700;24.170;2023-09-07T09:09:29;94485.78;;;26.11;nan
23166;BME280;11751;42.700;24.170;2023-09-07T09:12:05;94496.19;;;26.36;nan
23166;BME280;11751;42.700;24.170;2023-09-07T09:14:31;94482.56;;;26.69;nan
23166;BME280;11751;42.700;24.170;2023-09-07T09:16:57;94483.59;;;26.93;nan
23166;BME280;11751;42.700;24.170;2023-09-07T09:19:32;94486.84;;;27.38;nan
23166;BME280;11751;42.700;24.170;2023-09-07T09:21:58;94483.75;;;27.32;nan
23166;BME280;11751;42.700;24.170;2023-09-07T09:24:23;94468.84;;;27.37;nan
23166;BME280;11751;42.700;24.170;2023-09-07T09:26:49;94483.44;;;27.24;nan
23166;BME280;11751;42.700;24.170;2023-09-07T09:29:14;94475.03;;;27.12;nan
23166;BME280;11751;42.700;24.170;2023-09-07T09:31:40;94469.25;;;27.65;nan
23166;BME280;11751;42.700;24.170;2023-09-07T09:34:06;94468.06;;;27.91;nan
23166;BME280;11751;42.700;24.170;2023-09-07T09:36:33;94472.41;;;28.11;nan
23166;BME280;11751;42.700;24.170;2023-09-07T09:38:59;94464.44;;;28.29;nan
23166;BME280;11751;42.700;24.170;2023-09-07T09:41:25;94470.00;;;28.23;nan
23166;BME280;11751;42.700;24.170;2023-09-07T09:43:53;94468.19;;;28.53;nan
23166;BME280;11751;42.700;24.170;2023-09-07T09:46:18;94468.19;;;28.53;nan
23166;BME280;11751;42.700;24.170;2023-09-07T09:48:44;94451.19;;;28.82;nan
23166;BME280;11751;42.700;24.170;2023-09-07T09:51:10;94456.59;;;28.94;nan
23166;BME280;11751;42.700;24.170;2023-09-07T09:53:38;94457.22;;;29.12;nan
23166;BME280;11751;42.700;24.170;2023-09-07T09:56:04;94454.00;;;29.47;nan
23166;BME280;11751;42.700;24.170;2023-09-07T09:58:29;94457.63;;;29.70;nan
23166;BME280;11751;42.700;24.170;2023-09-07T10:00:56;94451.09;;;29.93;nan
23166;BME280;11751;42.700;24.170;2023-09-07T10:03:33;94456.22;;;29.95;nan
23166;BME280;11751;42.700;24.170;2023-09-07T10:06:09;94445.53;;;30.25;nan
23166;BME280;11751;42.700;24.170;2023-09-07T10:08:35;94446.66;;;30.14;nan
23166;BME280;11751;42.700;24.170;2023-09-07T10:11:07;94454.41;;;29.84;nan
23166;BME280;11751;42.700;24.170;2023-09-07T10:13:33;94436.88;;;30.01;nan
23166;BME280;11751;42.700;24.170;2023-09-07T10:18:39;94450.19;;;29.63;nan
23166;BME280;11751;42.700;24.170;2023-09-07T10:21:05;94451.16;;;29.04;nan
23166;BME280;11751;42.700;24.170;2023-09-07T10:23:42;94443.78;;;28.56;nan
23166;BME280;11751;42.700;24.170;2023-09-07T10:26:15;94459.59;;;28.55;nan
23166;BME280;11751;42.700;24.170;2023-09-07T10:28:41;94452.19;;;28.29;nan
23166;BME280;11751;42.700;24.170;2023-09-07T10:31:18;94447.88;;;28.49;nan
23166;BME280;11751;42.700;24.170;2023-09-07T10:33:45;94447.78;;;28.68;nan
23166;BME280;11751;42.700;24.170;2023-09-07T10:36:24;94452.84;;;28.27;nan
23166;BME280;11751;42.700;24.170;2023-09-07T10:38:50;94445.53;;;28.65;nan
23166;BME280;11751;42.700;24.170;2023-09-07T10:41:18;94438.00;;;28.56;nan
23166;BME280;11751;42.700;24.170;2023-09-07T10:43:53;94455.09;;;28.91;nan
23166;BME280;11751;42.700;24.170;2023-09-07T10:46:20;94461.63;;;28.72;nan
23166;BME280;11751;42.700;24.170;2023-09-07T10:48:49;94451.56;;;28.73;nan
23166;BME280;11751;42.700;24.170;2023-09-07T10:51:15;94448.03;;;28.34;nan
23166;BME280;11751;42.700;24.170;2023-09-07T10:53:40;94453.59;;;27.70;nan
23166;BME280;11751;42.700;24.170;2023-09-07T10:56:06;94449.25;;;27.88;nan
23166;BME280;11751;42.700;24.170;2023-09-07T10:58:35;94453.00;;;27.73;nan
23166;BME280;11751;42.700;24.170;2023-09-07T11:01:03;94458.75;;;27.73;nan
23166;BME280;11751;42.700;24.170;2023-09-07T11:03:29;94459.59;;;27.58;nan
23166;BME280;11751;42.700;24.170;2023-09-07T11:05:58;94444.44;;;27.01;nan
23166;BME280;11751;42.700;24.170;2023-09-07T11:08:24;94444.09;;;27.48;nan
23166;BME280;11751;42.700;24.170;2023-09-07T11:10:51;94443.66;;;27.36;nan
23166;BME280;11751;42.700;24.170;2023-09-07T11:13:17;94436.44;;;27.17;nan
23166;BME280;11751;42.700;24.170;2023-09-07T11:15:44;94429.28;;;27.01;nan
23166;BME280;11751;42.700;24.170;2023-09-07T11:18:10;94437.25;;;27.20;nan
23166;BME280;11751;42.700;24.170;2023-09-07T11:20:36;94442.47;;;27.06;nan
23166;BME280;11751;42.700;24.170;2023-09-07T11:23:02;94441.38;;;27.15;nan
23166;BME280;11751;42.700;24.170;2023-09-07T11:25:34;94437.56;;;27.28;nan
23166;BME280;11751;42.700;24.170;2023-09-07T11:28:02;94445.06;;;27.17;nan
23166;BME280;11751;42.700;24.170;2023-09-07T11:30:27;94438.91;;;26.90;nan
23166;BME280;11751;42.700;24.170;2023-09-07T11:33:04;94444.00;;;26.74;nan
23166;BME280;11751;42.700;24.170;2023-09-07T11:35:29;94441.03;;;27.07;nan
23166;BME280;11751;42.700;24.170;2023-09-07T11:37:55;94441.94;;;26.94;nan
23166;BME280;11751;42.700;24.170;2023-09-07T11:40:20;94434.84;;;27.32;nan
23166;BME280;11751;42.700;24.170;2023-09-07T11:42:46;94440.19;;;27.59;nan
23166;BME280;11751;42.700;24.170;2023-09-07T11:45:11;94430.22;;;27.42;nan
23166;BME280;11751;42.700;24.170;2023-09-07T11:47:38;94433.16;;;27.44;nan
23166;BME280;11751;42.700;24.170;2023-09-07T11:50:05;94435.22;;;27.42;nan
23166;BME280;11751;42.700;24.170;2023-09-07T11:52:32;94429.94;;;27.54;nan
23166;BME280;11751;42.700;24.170;2023-09-07T11:54:57;94433.31;;;27.66;nan
23166;BME280;11751;42.700;24.170;2023-09-07T11:57:22;94432.94;;;27.94;nan
23166;BME280;11751;42.700;24.170;2023-09-07T11:59:48;94428.22;;;27.83;nan
23166;BME280;11751;42.700;24.170;2023-09-07T12:02:13;94429.31;;;27.38;nan
23166;BME280;11751;42.700;24.170;2023-09-07T12:04:40;94420.25;;;27.26;nan
23166;BME280;11751;42.700;24.170;2023-09-07T12:07:06;94427.97;;;27.21;nan
23166;BME280;11751;42.700;24.170;2023-09-07T12:09:31;94432.34;;;27.05;nan
23166;BME280;11751;42.700;24.170;2023-09-07T12:11:57;94430.19;;;26.88;nan
23166;BME280;11751;42.700;24.170;2023-09-07T12:14:23;94426.09;;;26.76;nan
23166;BME280;11751;42.700;24.170;2023-09-07T12:16:48;94425.69;;;26.66;nan
23166;BME280;11751;42.700;24.170;2023-09-07T12:19:14;94425.94;;;26.54;nan
23166;BME280;11751;42.700;24.170;2023-09-07T12:21:39;94424.47;;;26.53;nan
23166;BME280;11751;42.700;24.170;2023-09-07T12:24:05;94424.41;;;26.18;nan
23166;BME280;11751;42.700;24.170;2023-09-07T12:26:30;94428.25;;;26.25;nan
23166;BME280;11751;42.700;24.170;2023-09-07T12:28:56;94425.66;;;26.31;nan
23166;BME280;11751;42.700;24.170;2023-09-07T12:31:22;94422.16;;;26.50;nan
23166;BME280;11751;42.700;24.170;2023-09-07T12:33:47;94424.66;;;26.24;nan
23166;BME280;11751;42.700;24.170;2023-09-07T12:36:12;94419.78;;;26.11;nan
23166;BME280;11751;42.700;24.170;2023-09-07T12:38:38;94424.97;;;26.32;nan
23166;BME280;11751;42.700;24.170;2023-09-07T12:41:03;94427.56;;;26.59;nan
23166;BME280;11751;42.700;24.170;2023-09-07T12:43:29;94423.78;;;26.37;nan
23166;BME280;11751;42.700;24.170;2023-09-07T12:45:55;94424.78;;;26.61;nan
23166;BME280;11751;42.700;24.170;2023-09-07T12:48:20;94423.31;;;26.95;nan
23166;BME280;11751;42.700;24.170;2023-09-07T12:50:46;94420.59;;;27.16;nan
23166;BME280;11751;42.700;24.170;2023-09-07T12:53:11;94422.53;;;27.29;nan
23166;BME280;11751;42.700;24.170;2023-09-07T12:55:36;94420.63;;;27.36;nan
23166;BME280;11751;42.700;24.170;2023-09-07T12:58:02;94424.63;;;27.46;nan
23166;BME280;11751;42.700;24.170;2023-09-07T13:00:27;94426.53;;;27.40;nan
23166;BME280;11751;42.700;24.170;2023-09-07T13:02:54;94433.75;;;27.41;nan
23166;BME280;11751;42.700;24.170;2023-09-07T13:05:20;94430.97;;;27.43;nan
23166;BME280;11751;42.700;24.170;2023-09-07T13:07:45;94425.03;;;27.19;nan
23166;BME280;11751;42.700;24.170;2023-09-07T13:10:11;94426.22;;;27.32;nan